Time;durP1;ratioP1;P1;durP2;ratioP2;P2;SDS_P1;SDS_P2;PMS_P1;PMS_P2;Temp;Humidity;BMP_temperature;BMP_pressure;BME280_temperature;BME280_humidity;BME280_pressure;Samples;Min_cycle;Max_cycle;Signal;HPM_P1;HPM_P2
2022/07/09 04:00:52;;;;;;;7.23;6.57;;;14.90;99.90;;;;;;5748055;23;20485;-65
2022/07/09 04:03:19;;;;;;;8.00;6.63;;;14.90;99.90;;;;;;4995833;28;20937;-65
2022/07/09 04:05:46;;;;;;;10.37;6.20;;;14.80;99.90;;;;;;4995807;28;20507;-65
2022/07/09 04:08:12;;;;;;;6.83;6.03;;;14.80;99.90;;;;;;4995419;28;20959;-66
2022/07/09 04:10:39;;;;;;;6.50;6.00;;;14.70;99.90;;;;;;4995565;28;20482;-65
2022/07/09 04:13:06;;;;;;;7.07;6.30;;;14.70;99.90;;;;;;4995644;28;20530;-65
2022/07/09 04:15:33;;;;;;;8.00;6.43;;;14.70;99.90;;;;;;4995267;28;20941;-65
2022/07/09 04:18:01;;;;;;;7.00;6.30;;;14.60;99.90;;;;;;4995305;28;20971;-65
2022/07/09 04:20:28;;;;;;;6.50;5.90;;;14.50;99.90;;;;;;4994908;28;20464;-65
2022/07/09 04:22:54;;;;;;;6.40;5.80;;;14.50;99.90;;;;;;4995356;28;20802;-65
2022/07/09 04:25:22;;;;;;;6.00;5.53;;;14.40;99.90;;;;;;4995351;28;20484;-66
2022/07/09 04:27:49;;;;;;;6.70;5.97;;;14.50;99.90;;;;;;4995391;28;20508;-65
2022/07/09 04:30:15;;;;;;;7.67;5.77;;;14.50;99.90;;;;;;4995215;28;20481;-64
2022/07/09 04:32:42;;;;;;;5.67;5.10;;;14.60;99.90;;;;;;4995299;28;20457;-64
2022/07/09 04:35:10;;;;;;;8.93;5.50;;;14.70;99.90;;;;;;4995916;28;20458;-65
2022/07/09 04:37:37;;;;;;;6.87;5.30;;;14.70;99.90;;;;;;4995159;28;20465;-64
2022/07/09 04:40:05;;;;;;;6.60;5.63;;;14.80;99.90;;;;;;4995242;28;20454;-64
2022/07/09 04:42:31;;;;;;;6.17;5.50;;;14.70;99.90;;;;;;4994810;28;21003;-64
2022/07/09 04:44:58;;;;;;;8.00;7.13;;;14.80;99.90;;;;;;4995085;28;20464;-64
2022/07/09 04:47:25;;;;;;;8.27;6.00;;;14.80;99.90;;;;;;4994866;28;20513;-64
2022/07/09 04:49:52;;;;;;;6.60;6.03;;;14.90;99.90;;;;;;4994880;28;20461;-64
2022/07/09 04:52:20;;;;;;;11.13;6.40;;;14.90;99.90;;;;;;4995068;28;21014;-65
2022/07/09 04:54:47;;;;;;;6.80;6.10;;;14.90;99.90;;;;;;4995144;28;20457;-65
2022/07/09 04:57:14;;;;;;;7.20;6.60;;;15.00;99.90;;;;;;4995048;28;20504;-64
2022/07/09 04:59:41;;;;;;;7.37;6.67;;;15.00;99.90;;;;;;4995031;28;20450;-65
2022/07/09 05:02:07;;;;;;;7.47;6.70;;;15.00;99.90;;;;;;4994800;28;20481;-66
2022/07/09 05:04:34;;;;;;;9.80;6.70;;;15.00;99.90;;;;;;4995122;28;20508;-65
2022/07/09 05:07:01;;;;;;;7.27;6.77;;;15.00;99.90;;;;;;4994733;28;20458;-65
2022/07/09 05:09:29;;;;;;;7.80;7.10;;;15.00;99.90;;;;;;4994981;28;20464;-64
2022/07/09 05:11:55;;;;;;;9.43;6.80;;;15.00;99.90;;;;;;4994918;28;20473;-66
2022/07/09 05:14:22;;;;;;;8.17;6.40;;;15.10;99.90;;;;;;4995140;28;20462;-65
2022/07/09 05:16:49;;;;;;;7.30;6.60;;;15.20;99.90;;;;;;4994358;28;20945;-65
2022/07/09 05:19:17;;;;;;;9.60;7.20;;;15.30;99.90;;;;;;4994338;28;20458;-65
2022/07/09 05:21:43;;;;;;;7.63;6.93;;;15.30;99.90;;;;;;4994120;28;20481;-64
2022/07/09 05:24:10;;;;;;;7.23;6.17;;;15.20;99.90;;;;;;4994344;28;20462;-65
2022/07/09 05:26:39;;;;;;;7.63;6.10;;;15.20;99.90;;;;;;4994107;28;20480;-64
2022/07/09 05:29:05;;;;;;;9.17;7.13;;;15.30;99.90;;;;;;4994479;28;20457;-64
2022/07/09 05:31:32;;;;;;;7.30;6.40;;;15.40;99.90;;;;;;4995050;28;20484;-64
2022/07/09 05:34:00;;;;;;;7.37;6.73;;;15.40;99.90;;;;;;4999258;28;20906;-65
2022/07/09 05:36:28;;;;;;;7.13;6.00;;;15.50;99.90;;;;;;4998834;28;20461;-65
2022/07/09 05:38:55;;;;;;;6.23;5.80;;;15.60;99.90;;;;;;4999494;28;20500;-64
2022/07/09 05:41:22;;;;;;;6.87;6.20;;;15.70;99.90;;;;;;4998780;28;20485;-64
2022/07/09 05:43:50;;;;;;;5.80;5.30;;;15.70;99.90;;;;;;4998154;28;20457;-64
2022/07/09 05:46:17;;;;;;;5.67;5.03;;;15.90;99.90;;;;;;4997892;28;21087;-64
2022/07/09 05:48:43;;;;;;;6.80;6.20;;;16.00;99.90;;;;;;4998424;28;20789;-64
2022/07/09 05:51:10;;;;;;;5.63;5.23;;;16.00;99.90;;;;;;4998352;28;20489;-64
2022/07/09 05:53:37;;;;;;;8.07;5.87;;;16.10;99.90;;;;;;4998271;28;20461;-64
2022/07/09 05:56:04;;;;;;;7.43;5.90;;;16.20;99.90;;;;;;4998413;28;20450;-64
2022/07/09 05:58:31;;;;;;;6.03;5.40;;;16.40;99.90;;;;;;4997906;28;20469;-65
2022/07/09 06:00:59;;;;;;;5.60;5.20;;;16.60;99.90;;;;;;4997812;28;20481;-65
2022/07/09 06:03:26;;;;;;;5.83;5.33;;;16.80;99.90;;;;;;4997993;28;20461;-65
2022/07/09 06:05:53;;;;;;;5.93;5.43;;;17.00;99.90;;;;;;5000775;28;20493;-64
2022/07/09 06:08:20;;;;;;;7.43;5.53;;;17.20;99.90;;;;;;5001914;28;20457;-65
2022/07/09 06:10:46;;;;;;;8.57;5.63;;;17.40;99.90;;;;;;5001197;28;20477;-64
2022/07/09 06:13:13;;;;;;;7.20;5.63;;;17.70;99.90;;;;;;4999306;28;21027;-64
2022/07/09 06:15:40;;;;;;;7.50;4.93;;;17.90;99.90;;;;;;4998869;28;20461;-64
2022/07/09 06:18:08;;;;;;;6.60;4.37;;;18.10;99.90;;;;;;4998530;28;20453;-64
2022/07/09 06:20:35;;;;;;;11.50;5.80;;;18.20;99.90;;;;;;4998577;28;20477;-64
2022/07/09 06:23:02;;;;;;;9.40;4.70;;;18.30;99.90;;;;;;4997818;28;20964;-64
2022/07/09 06:25:28;;;;;;;4.03;3.80;;;18.40;99.90;;;;;;4997947;28;20457;-65
2022/07/09 06:27:55;;;;;;;5.93;4.20;;;18.60;99.90;;;;;;4997855;28;20477;-64
2022/07/09 06:30:22;;;;;;;4.47;3.97;;;18.70;99.90;;;;;;4997810;28;20461;-64
2022/07/09 06:32:49;;;;;;;10.20;4.47;;;18.90;99.90;;;;;;4998019;28;20458;-65
2022/07/09 06:35:17;;;;;;;9.63;4.47;;;19.10;99.90;;;;;;4997449;28;20458;-64
2022/07/09 06:37:43;;;;;;;7.87;4.30;;;19.40;99.90;;;;;;4997704;28;20441;-65
2022/07/09 06:40:10;;;;;;;7.47;3.90;;;19.70;99.90;;;;;;4997729;28;20457;-64
2022/07/09 06:42:37;;;;;;;5.83;4.10;;;19.80;99.90;;;;;;4997167;28;20450;-65
2022/07/09 06:45:04;;;;;;;7.23;4.00;;;20.10;99.90;;;;;;4997258;28;20529;-64
2022/07/09 06:47:31;;;;;;;5.97;3.70;;;20.30;99.90;;;;;;4998028;28;21055;-65
2022/07/09 06:49:58;;;;;;;3.63;3.33;;;20.50;99.90;;;;;;4997823;28;20465;-65
2022/07/09 06:52:27;;;;;;;5.60;4.07;;;20.70;99.90;;;;;;4997227;28;20478;-65
2022/07/09 06:54:54;;;;;;;4.07;3.67;;;20.90;99.90;;;;;;4997125;28;20454;-65
2022/07/09 06:57:20;;;;;;;4.40;4.00;;;21.10;99.90;;;;;;5002390;28;20452;-65
2022/07/09 06:59:47;;;;;;;6.93;3.53;;;21.30;99.90;;;;;;5016300;28;20513;-65
2022/07/09 07:02:16;;;;;;;3.93;3.50;;;21.60;99.90;;;;;;5008355;28;20477;-65
2022/07/09 07:04:42;;;;;;;6.60;4.00;;;22.10;99.90;;;;;;4997349;28;20516;-64
2022/07/09 07:07:09;;;;;;;6.30;4.10;;;22.40;99.90;;;;;;4997074;28;20485;-64
2022/07/09 07:09:37;;;;;;;5.03;3.40;;;22.90;99.90;;;;;;4996744;28;20457;-64
2022/07/09 07:12:05;;;;;;;7.40;3.70;;;23.60;98.40;;;;;;4996422;28;20470;-64
2022/07/09 07:14:32;;;;;;;3.70;3.20;;;24.10;98.10;;;;;;4996626;28;20812;-64
2022/07/09 07:16:58;;;;;;;4.50;3.43;;;24.60;96.10;;;;;;4996445;28;20457;-64
2022/07/09 07:19:25;;;;;;;4.33;3.67;;;25.10;93.70;;;;;;4996702;28;20456;-64
2022/07/09 07:21:52;;;;;;;3.90;3.20;;;25.40;91.10;;;;;;4996385;28;20480;-64
2022/07/09 07:24:18;;;;;;;7.03;3.50;;;25.30;91.40;;;;;;4996510;28;20492;-64
2022/07/09 07:26:46;;;;;;;4.93;3.20;;;25.30;90.50;;;;;;4996128;28;20993;-64
2022/07/09 07:29:13;;;;;;;4.50;2.87;;;25.20;90.20;;;;;;4995950;28;21005;-64
2022/07/09 07:31:40;;;;;;;5.10;3.43;;;25.10;89.40;;;;;;4996343;28;20469;-63
2022/07/09 07:34:07;;;;;;;5.00;3.37;;;25.20;89.30;;;;;;4996260;28;20461;-63
2022/07/09 07:36:34;;;;;;;4.20;3.47;;;25.30;89.10;;;;;;4996006;28;20862;-63
2022/07/09 07:39:01;;;;;;;3.47;3.07;;;25.20;89.10;;;;;;4996486;28;20454;-63
2022/07/09 07:41:28;;;;;;;4.50;3.13;;;25.60;88.60;;;;;;4996544;28;20841;-63
2022/07/09 07:43:56;;;;;;;5.47;3.27;;;25.90;89.80;;;;;;4996277;28;20557;-66
2022/07/09 07:46:23;;;;;;;3.83;2.60;;;26.40;87.00;;;;;;4996108;28;20454;-64
2022/07/09 07:48:50;;;;;;;5.23;3.37;;;26.90;83.60;;;;;;4996260;28;20512;-64
2022/07/09 07:51:17;;;;;;;7.93;3.03;;;27.30;83.50;;;;;;4996087;28;20524;-64
2022/07/09 07:53:43;;;;;;;4.13;3.30;;;27.80;83.70;;;;;;4995169;28;20941;-64
2022/07/09 07:56:10;;;;;;;5.63;3.03;;;28.20;78.30;;;;;;4996046;28;20457;-63
2022/07/09 07:58:37;;;;;;;5.22;2.70;;;28.00;77.00;;;;;;4995291;28;20452;-64
2022/07/09 08:01:05;;;;;;;2.67;2.47;;;28.00;77.40;;;;;;4995404;28;20226;-64
2022/07/09 08:03:32;;;;;;;3.53;2.80;;;27.80;80.40;;;;;;4995794;28;20458;-64
2022/07/09 08:05:59;;;;;;;7.73;2.83;;;28.30;80.30;;;;;;4996009;28;20512;-64
2022/07/09 08:08:25;;;;;;;3.07;2.43;;;29.00;73.40;;;;;;4995926;28;20477;-64
2022/07/09 08:10:52;;;;;;;3.07;2.57;;;29.20;67.30;;;;;;4995965;28;20500;-63
2022/07/09 08:13:19;;;;;;;4.40;2.27;;;29.60;67.10;;;;;;4995892;28;20461;-64
2022/07/09 08:15:46;;;;;;;5.47;2.73;;;29.80;66.80;;;;;;4995649;28;20453;-64
2022/07/09 08:18:14;;;;;;;4.63;2.87;;;30.10;66.90;;;;;;4995752;28;20578;-65
2022/07/09 08:20:42;;;;;;;3.60;2.87;;;30.60;65.70;;;;;;4996076;28;20928;-65
2022/07/09 08:23:09;;;;;;;3.60;2.40;;;30.30;66.00;;;;;;4995633;28;20532;-64
2022/07/09 08:25:35;;;;;;;2.47;2.10;;;30.80;66.70;;;;;;4995828;28;20454;-65
2022/07/09 08:28:03;;;;;;;4.60;2.33;;;31.20;61.60;;;;;;4995630;28;20474;-65
2022/07/09 08:30:30;;;;;;;3.50;2.10;;;31.50;59.70;;;;;;4995687;28;20457;-66
2022/07/09 08:32:56;;;;;;;4.83;2.30;;;31.70;58.90;;;;;;4995256;28;20458;-65
2022/07/09 08:35:25;;;;;;;4.67;2.00;;;31.80;58.90;;;;;;4995521;28;20466;-66
2022/07/09 08:37:52;;;;;;;2.87;2.00;;;31.70;58.80;;;;;;4995541;28;20449;-65
2022/07/09 08:40:19;;;;;;;3.30;2.07;;;31.80;56.90;;;;;;4995382;28;20453;-65
2022/07/09 08:42:46;;;;;;;1.57;1.40;;;32.10;57.60;;;;;;4995575;28;20453;-65
2022/07/09 08:45:13;;;;;;;1.33;1.10;;;32.10;58.70;;;;;;4995236;28;20462;-66
2022/07/09 08:47:41;;;;;;;1.20;1.10;;;31.90;57.40;;;;;;4995074;28;20560;-66
2022/07/09 08:50:09;;;;;;;1.83;1.33;;;32.30;58.00;;;;;;4995133;28;20466;-66
2022/07/09 08:52:40;;;;;;;2.87;1.73;;;32.60;56.40;;;;;;4995121;28;20485;-66
2022/07/09 08:55:08;;;;;;;1.67;1.30;;;32.20;57.70;;;;;;4994896;28;20449;-66
2022/07/09 08:57:35;;;;;;;3.70;2.07;;;32.30;59.70;;;;;;4994616;28;20453;-66
2022/07/09 09:00:04;;;;;;;2.20;1.60;;;32.80;55.60;;;;;;4994987;28;20480;-65
2022/07/09 09:02:36;;;;;;;2.97;1.77;;;33.00;54.80;;;;;;4995268;28;20520;-65
2022/07/09 09:05:08;;;;;;;3.10;1.60;;;33.20;54.70;;;;;;4995086;28;20442;-65
2022/07/09 09:07:35;;;;;;;1.63;1.53;;;33.00;55.50;;;;;;4994498;28;20462;-65
2022/07/09 09:10:04;;;;;;;4.87;1.60;;;33.40;54.90;;;;;;4994860;28;20454;-66
2022/07/09 09:12:30;;;;;;;3.60;1.80;;;33.80;53.40;;;;;;4994679;28;20532;-66
2022/07/09 09:14:57;;;;;;;3.97;2.83;;;33.90;54.80;;;;;;4994774;28;20457;-66
2022/07/09 09:17:24;;;;;;;1.80;1.33;;;34.30;52.70;;;;;;5000394;28;20530;-66
2022/07/09 09:19:51;;;;;;;2.43;1.80;;;34.40;52.00;;;;;;5002104;28;20449;-66
2022/07/09 09:22:18;;;;;;;2.27;1.70;;;34.10;51.30;;;;;;4998016;28;20980;-63
2022/07/09 09:24:50;;;;;;;3.10;1.50;;;34.10;52.30;;;;;;4996493;28;20453;-63
2022/07/09 09:27:18;;;;;;;9.00;2.00;;;34.20;52.60;;;;;;4995181;28;20462;-63
2022/07/09 09:29:51;;;;;;;1.73;1.63;;;34.60;51.80;;;;;;4995358;28;20457;-63
2022/07/09 09:32:21;;;;;;;2.00;1.30;;;34.30;50.30;;;;;;4995289;28;20473;-63
2022/07/09 09:34:50;;;;;;;3.10;1.93;;;34.30;51.10;;;;;;4995272;28;20442;-63
2022/07/09 09:37:26;;;;;;;2.60;1.83;;;34.50;51.10;;;;;;4995133;28;20484;-63
2022/07/09 09:39:52;;;;;;;3.13;1.60;;;34.70;49.90;;;;;;4994932;28;20441;-63
2022/07/09 09:42:24;;;;;;;1.73;1.63;;;34.80;49.40;;;;;;4994921;28;20476;-63
2022/07/09 09:44:51;;;;;;;2.87;1.67;;;34.80;51.00;;;;;;4994587;28;20916;-62
2022/07/09 09:47:23;;;;;;;1.60;1.50;;;34.50;52.20;;;;;;4994381;28;20488;-63
2022/07/09 09:49:50;;;;;;;4.00;1.67;;;34.90;50.90;;;;;;4994671;28;20441;-63
2022/07/09 09:52:20;;;;;;;3.83;1.77;;;35.10;49.10;;;;;;4994460;28;20477;-63
2022/07/09 09:54:48;;;;;;;3.53;2.10;;;35.20;47.70;;;;;;4994342;28;20461;-63
2022/07/09 09:57:17;;;;;;;6.70;1.83;;;35.10;48.90;;;;;;4994614;28;20853;-63
2022/07/09 09:59:46;;;;;;;2.23;1.40;;;35.10;49.90;;;;;;4995525;28;20817;-63
2022/07/09 10:02:14;;;;;;;2.20;1.70;;;35.00;48.20;;;;;;5006127;28;20567;-63
2022/07/09 10:04:43;;;;;;;3.37;1.67;;;34.70;49.10;;;;;;5005002;28;20473;-62
2022/07/09 10:07:13;;;;;;;3.17;1.40;;;33.80;48.80;;;;;;4994699;28;20485;-62
2022/07/09 10:09:39;;;;;;;1.60;1.50;;;33.20;50.70;;;;;;4994471;28;20457;-63
2022/07/09 10:12:09;;;;;;;2.23;1.43;;;32.40;50.60;;;;;;4994284;28;20976;-63
2022/07/09 10:14:38;;;;;;;1.87;1.67;;;31.50;53.40;;;;;;4994069;28;20963;-63
2022/07/09 10:17:14;;;;;;;2.30;1.80;;;31.00;53.10;;;;;;4994484;28;20453;-64
2022/07/09 10:19:52;;;;;;;2.23;1.60;;;30.70;55.90;;;;;;4998167;28;20484;-63
2022/07/09 10:22:19;;;;;;;4.83;1.70;;;31.10;55.00;;;;;;4997752;28;20477;-64
2022/07/09 10:24:46;;;;;;;1.37;1.27;;;31.80;52.50;;;;;;4997942;28;20457;-63
2022/07/09 10:27:13;;;;;;;2.20;1.40;;;32.40;51.90;;;;;;4997622;28;20462;-63
2022/07/09 10:29:53;;;;;;;1.77;1.50;;;32.80;54.10;;;;;;4998358;28;20460;-63
2022/07/09 10:32:26;;;;;;;1.73;1.50;;;33.00;50.40;;;;;;4997978;28;20472;-64
2022/07/09 10:34:58;;;;;;;2.83;1.87;;;33.10;52.00;;;;;;4997734;28;20441;-63
2022/07/09 10:37:32;;;;;;;3.60;1.70;;;32.70;51.10;;;;;;4997338;28;20952;-63
2022/07/09 10:40:15;;;;;;;3.03;1.73;;;32.90;53.00;;;;;;4997763;28;20483;-64
2022/07/09 10:42:43;;;;;;;1.40;1.30;;;33.00;51.40;;;;;;4997663;28;20464;-64
2022/07/09 10:45:21;;;;;;;2.83;1.30;;;32.50;50.10;;;;;;4996408;28;20459;-63
2022/07/09 10:47:54;;;;;;;1.70;1.60;;;31.90;50.70;;;;;;4997425;28;20623;-64
2022/07/09 10:50:21;;;;;;;1.57;1.10;;;31.10;51.30;;;;;;4997374;28;20442;-64
2022/07/09 10:52:49;;;;;;;1.80;1.40;;;30.10;52.90;;;;;;4997566;28;20549;-63
2022/07/09 10:55:18;;;;;;;3.00;1.70;;;29.70;54.80;;;;;;4997479;28;20464;-62
2022/07/09 10:57:44;;;;;;;1.57;1.40;;;29.70;56.70;;;;;;4997286;28;20486;-63
2022/07/09 11:00:15;;;;;;;1.20;1.20;;;29.90;56.00;;;;;;4997333;28;20457;-63
2022/07/09 11:02:54;;;;;;;1.50;1.30;;;30.70;54.30;;;;;;4996929;28;20828;-63
2022/07/09 11:05:21;;;;;;;9.00;2.97;;;31.40;52.10;;;;;;4997390;28;20446;-63
2022/07/09 11:07:56;;;;;;;1.10;1.10;;;31.90;53.80;;;;;;4997025;28;20481;-63
2022/07/09 11:10:23;;;;;;;3.57;1.70;;;32.30;52.40;;;;;;4997387;28;20446;-63
2022/07/09 11:12:50;;;;;;;1.97;1.80;;;32.30;49.70;;;;;;4997068;28;20457;-63
2022/07/09 11:15:21;;;;;;;4.50;1.80;;;32.00;52.00;;;;;;4996820;28;20458;-62
2022/07/09 11:18:00;;;;;;;1.47;1.37;;;31.60;52.10;;;;;;4997045;28;20450;-63
2022/07/09 11:20:28;;;;;;;1.67;1.50;;;31.20;51.10;;;;;;4996591;28;20446;-63
2022/07/09 11:22:56;;;;;;;1.77;1.50;;;30.60;51.90;;;;;;4996728;28;20949;-62
2022/07/09 11:25:25;;;;;;;4.27;1.60;;;30.10;53.90;;;;;;4996992;28;20803;-62
2022/07/09 11:27:52;;;;;;;4.57;2.40;;;29.60;56.90;;;;;;4997039;28;20513;-63
2022/07/09 11:30:19;;;;;;;2.40;2.00;;;29.00;57.50;;;;;;4997013;28;20457;-63
2022/07/09 11:32:46;;;;;;;1.80;1.67;;;28.50;58.60;;;;;;4997786;28;20524;-63
2022/07/09 11:35:25;;;;;;;2.10;1.90;;;28.20;60.40;;;;;;4996833;28;20786;-63
2022/07/09 11:37:52;;;;;;;2.20;2.00;;;27.90;60.30;;;;;;4996845;28;20444;-62
2022/07/09 11:40:20;;;;;;;2.13;1.93;;;27.70;60.40;;;;;;4996905;28;20453;-62
2022/07/09 11:42:47;;;;;;;2.40;1.93;;;27.50;61.50;;;;;;4996496;28;20545;-62
2022/07/09 11:45:13;;;;;;;1.70;1.60;;;27.30;62.10;;;;;;4996408;28;20458;-63
2022/07/09 11:47:40;;;;;;;6.03;1.90;;;27.30;62.70;;;;;;4996661;28;20516;-62
2022/07/09 11:50:09;;;;;;;2.67;1.87;;;27.30;64.10;;;;;;4996406;28;20489;-62
2022/07/09 11:52:38;;;;;;;2.17;1.60;;;27.40;63.10;;;;;;4997016;28;20484;-62
2022/07/09 11:55:06;;;;;;;2.90;1.70;;;27.70;63.70;;;;;;4996384;28;20458;-63
2022/07/09 11:57:35;;;;;;;2.53;1.77;;;28.30;63.50;;;;;;4996923;28;20457;-63
2022/07/09 12:00:03;;;;;;;1.60;1.50;;;28.80;59.30;;;;;;4996253;28;20460;-63
2022/07/09 12:02:31;;;;;;;1.60;1.50;;;29.10;57.90;;;;;;4995674;28;20852;-63
2022/07/09 12:04:58;;;;;;;1.60;1.33;;;29.40;60.70;;;;;;4996566;28;20528;-62
2022/07/09 12:07:25;;;;;;;2.07;1.20;;;29.70;57.70;;;;;;4996241;28;20454;-63
2022/07/09 12:10:00;;;;;;;1.60;1.50;;;29.80;55.40;;;;;;4996330;28;20557;-63
2022/07/09 12:12:28;;;;;;;1.63;1.47;;;30.00;56.50;;;;;;4995873;28;20484;-63
2022/07/09 12:14:55;;;;;;;2.50;1.40;;;30.00;56.60;;;;;;4995538;28;20468;-63
2022/07/09 12:17:24;;;;;;;2.77;1.83;;;30.30;57.20;;;;;;4995859;28;20450;-63
2022/07/09 12:19:51;;;;;;;1.80;1.40;;;30.60;56.90;;;;;;4997380;28;20456;-63
2022/07/09 12:22:17;;;;;;;1.47;1.30;;;31.00;57.10;;;;;;5001428;28;20501;-63
2022/07/09 12:24:44;;;;;;;2.63;1.30;;;31.10;56.20;;;;;;5001010;28;20457;-63
2022/07/09 12:27:12;;;;;;;1.37;1.33;;;31.30;56.10;;;;;;4997781;28;20460;-63
2022/07/09 12:29:39;;;;;;;2.77;1.10;;;31.20;55.30;;;;;;4995558;28;20500;-63
2022/07/09 12:32:06;;;;;;;1.27;1.20;;;31.20;55.00;;;;;;4996025;28;20481;-62
2022/07/09 12:34:33;;;;;;;3.37;1.40;;;31.20;55.20;;;;;;4995600;28;20789;-63
2022/07/09 12:36:59;;;;;;;1.27;1.17;;;31.20;53.60;;;;;;4995474;28;20462;-62
2022/07/09 12:39:26;;;;;;;1.70;1.60;;;31.30;53.90;;;;;;4995545;28;20461;-63
2022/07/09 12:41:53;;;;;;;3.43;1.30;;;31.30;51.90;;;;;;4995593;28;20969;-62
2022/07/09 12:44:21;;;;;;;1.40;1.13;;;31.10;53.70;;;;;;4995200;28;20457;-62
2022/07/09 12:46:48;;;;;;;2.50;1.40;;;31.00;53.50;;;;;;4995377;28;20529;-63
2022/07/09 12:49:15;;;;;;;1.90;1.17;;;30.90;55.20;;;;;;4995325;28;20478;-62
2022/07/09 12:51:42;;;;;;;1.07;1.07;;;31.00;53.10;;;;;;4995384;28;20576;-63
2022/07/09 12:54:08;;;;;;;1.77;1.23;;;30.90;54.60;;;;;;4995020;28;20485;-62
2022/07/09 12:56:36;;;;;;;1.63;1.33;;;31.00;56.10;;;;;;4995147;28;20458;-63
2022/07/09 12:59:03;;;;;;;2.43;1.00;;;31.00;54.20;;;;;;4995011;28;20826;-63
2022/07/09 13:01:31;;;;;;;0.93;0.93;;;30.90;53.30;;;;;;4994332;28;20861;-63
2022/07/09 13:03:58;;;;;;;1.80;1.30;;;30.90;51.70;;;;;;4995181;28;20454;-63
2022/07/09 13:06:33;;;;;;;0.93;0.93;;;30.70;51.90;;;;;;4995295;28;20458;-64
2022/07/09 13:09:01;;;;;;;2.40;1.13;;;30.60;52.90;;;;;;4994850;28;20458;-63
2022/07/09 13:11:28;;;;;;;2.17;1.40;;;30.70;53.60;;;;;;4994953;28;20481;-62
2022/07/09 13:13:55;;;;;;;1.80;1.37;;;30.70;55.00;;;;;;4994761;28;20464;-62
2022/07/09 13:16:22;;;;;;;2.37;0.90;;;30.90;56.00;;;;;;4994620;28;20465;-62
2022/07/09 13:18:51;;;;;;;1.37;1.27;;;31.10;51.50;;;;;;4994471;28;20453;-62
2022/07/09 13:21:17;;;;;;;1.40;1.20;;;30.80;53.40;;;;;;4994515;28;20509;-62
2022/07/09 13:23:44;;;;;;;1.47;1.30;;;30.90;52.50;;;;;;4994500;28;20458;-62
2022/07/09 13:26:11;;;;;;;2.03;1.93;;;30.70;52.90;;;;;;4994060;28;20464;-63
2022/07/09 13:28:38;;;;;;;2.50;1.30;;;30.50;53.00;;;;;;4993863;28;20992;-63
2022/07/09 13:31:05;;;;;;;3.30;1.60;;;30.30;54.60;;;;;;4994367;28;20884;-62
2022/07/09 13:33:32;;;;;;;2.00;1.30;;;30.00;56.00;;;;;;4994572;28;20454;-63
2022/07/09 13:36:00;;;;;;;2.47;1.80;;;29.70;55.10;;;;;;4994669;28;20454;-63
2022/07/09 13:38:27;;;;;;;1.27;1.27;;;29.40;55.80;;;;;;4994332;28;20457;-64
2022/07/09 13:40:54;;;;;;;2.17;1.63;;;29.00;56.50;;;;;;4994238;28;20477;-63
2022/07/09 13:43:22;;;;;;;1.53;1.40;;;28.80;57.10;;;;;;4994261;28;20453;-62
2022/07/09 13:45:49;;;;;;;1.60;1.50;;;28.70;58.30;;;;;;4994269;28;20462;-63
2022/07/09 13:48:16;;;;;;;6.30;1.70;;;28.70;57.50;;;;;;4994156;28;20458;-63
2022/07/09 13:50:42;;;;;;;2.70;1.30;;;28.70;57.70;;;;;;4993560;28;20460;-63
2022/07/09 13:53:10;;;;;;;2.50;1.50;;;28.80;59.00;;;;;;4996064;28;20214;-63
2022/07/09 13:55:37;;;;;;;1.40;1.30;;;28.90;58.70;;;;;;4998150;28;20529;-63
2022/07/09 13:58:04;;;;;;;1.50;1.40;;;29.10;58.10;;;;;;4997820;28;20945;-63
2022/07/09 14:00:31;;;;;;;2.83;1.57;;;29.00;56.80;;;;;;4997668;28;20820;-63
2022/07/09 14:02:58;;;;;;;4.13;1.60;;;29.00;58.00;;;;;;4997859;28;20437;-63
2022/07/09 14:05:24;;;;;;;1.60;1.10;;;29.00;58.60;;;;;;4997377;28;20820;-62
2022/07/09 14:07:51;;;;;;;2.20;1.67;;;29.10;57.90;;;;;;4997582;28;20607;-62
2022/07/09 14:10:19;;;;;;;6.95;1.50;;;29.20;59.10;;;;;;4996935;28;20459;-63
2022/07/09 14:12:47;;;;;;;2.67;1.73;;;29.30;59.10;;;;;;5010313;28;20198;-63
2022/07/09 14:15:14;;;;;;;1.47;1.37;;;29.30;58.90;;;;;;5003679;28;20453;-64
2022/07/09 14:17:41;;;;;;;2.00;1.90;;;29.20;57.40;;;;;;4998942;28;20457;-64
2022/07/09 14:20:09;;;;;;;1.60;1.60;;;29.10;58.40;;;;;;4997705;28;20454;-63
2022/07/09 14:22:36;;;;;;;1.70;1.60;;;29.10;57.60;;;;;;4997554;28;20838;-63
2022/07/09 14:25:03;;;;;;;1.80;1.70;;;28.90;58.70;;;;;;4997696;28;20457;-63
2022/07/09 14:27:31;;;;;;;1.70;1.60;;;28.70;58.30;;;;;;4997602;28;20499;-64
2022/07/09 14:29:57;;;;;;;1.67;1.60;;;28.60;58.60;;;;;;4997412;28;20481;-63
2022/07/09 14:32:24;;;;;;;1.70;1.60;;;28.60;58.20;;;;;;4997256;28;20988;-64
2022/07/09 14:34:51;;;;;;;2.03;1.80;;;28.70;59.30;;;;;;4997413;28;20503;-64
2022/07/09 14:37:17;;;;;;;3.03;1.90;;;28.70;59.70;;;;;;4997411;28;20454;-64
2022/07/09 14:39:44;;;;;;;2.57;1.77;;;28.70;59.20;;;;;;4997058;28;20845;-63
2022/07/09 14:42:11;;;;;;;1.80;1.53;;;28.80;58.90;;;;;;4997151;28;20478;-64
2022/07/09 14:44:39;;;;;;;1.80;1.70;;;28.70;59.90;;;;;;4997226;28;20480;-64
2022/07/09 14:47:06;;;;;;;1.80;1.70;;;28.70;59.40;;;;;;4997210;28;20457;-64
2022/07/09 14:49:32;;;;;;;1.60;1.50;;;28.60;58.70;;;;;;4997529;28;20466;-64
2022/07/09 14:51:59;;;;;;;1.77;1.67;;;28.50;59.00;;;;;;4997033;28;20473;-64
2022/07/09 14:54:26;;;;;;;4.97;1.83;;;28.50;60.80;;;;;;4997001;28;20453;-64
2022/07/09 14:56:52;;;;;;;1.97;1.87;;;28.50;60.80;;;;;;4996985;28;20810;-64
2022/07/09 14:59:21;;;;;;;2.17;2.07;;;28.50;59.30;;;;;;4997359;28;20457;-64
2022/07/09 15:01:49;;;;;;;2.50;1.90;;;28.50;60.30;;;;;;4996234;28;20846;-64
2022/07/09 15:04:16;;;;;;;2.53;1.73;;;28.60;59.20;;;;;;4996407;28;20465;-64
2022/07/09 15:06:43;;;;;;;1.90;1.80;;;28.50;59.50;;;;;;4996713;28;20460;-64
2022/07/09 15:09:10;;;;;;;2.40;2.03;;;28.40;59.80;;;;;;4996559;28;20481;-64
2022/07/09 15:11:36;;;;;;;1.93;1.60;;;28.40;60.30;;;;;;4996638;28;20484;-63
2022/07/09 15:14:03;;;;;;;2.00;1.90;;;28.70;59.40;;;;;;4997061;28;20442;-64
2022/07/09 15:16:30;;;;;;;1.80;1.70;;;28.90;61.70;;;;;;4996695;28;20458;-64
2022/07/09 15:18:58;;;;;;;1.93;1.83;;;28.90;58.80;;;;;;4996686;28;20450;-64
2022/07/09 15:21:27;;;;;;;1.90;1.80;;;29.10;59.40;;;;;;4996579;28;20480;-64
2022/07/09 15:23:53;;;;;;;2.30;1.80;;;29.10;59.40;;;;;;4996511;28;20541;-63
2022/07/09 15:26:20;;;;;;;2.10;2.00;;;28.90;59.00;;;;;;4996260;28;20454;-65
2022/07/09 15:28:47;;;;;;;2.40;2.20;;;28.90;60.40;;;;;;4996821;28;20434;-64
2022/07/09 15:31:14;;;;;;;3.20;2.23;;;28.80;60.00;;;;;;4996558;28;20816;-64
2022/07/09 15:33:41;;;;;;;2.20;2.10;;;28.70;59.50;;;;;;4996165;28;20458;-65
2022/07/09 15:36:09;;;;;;;5.20;1.80;;;28.60;59.60;;;;;;4995770;28;20936;-64
2022/07/09 15:38:36;;;;;;;3.03;2.10;;;28.60;61.10;;;;;;4995962;28;20466;-65
2022/07/09 15:41:05;;;;;;;1.93;1.83;;;28.70;62.70;;;;;;4995582;28;20869;-65
2022/07/09 15:43:31;;;;;;;2.70;1.90;;;28.80;61.40;;;;;;4995793;28;20552;-65
2022/07/09 15:45:58;;;;;;;2.03;1.93;;;28.80;61.70;;;;;;4995971;28;20486;-65
2022/07/09 15:48:25;;;;;;;2.83;2.30;;;28.80;60.80;;;;;;4995552;28;20446;-64
2022/07/09 15:50:52;;;;;;;3.57;2.10;;;28.70;60.80;;;;;;4995633;28;20528;-64
2022/07/09 15:53:20;;;;;;;2.67;1.90;;;28.80;60.90;;;;;;4995499;28;20462;-63
2022/07/09 15:55:47;;;;;;;2.53;2.20;;;28.70;61.20;;;;;;4995674;28;20457;-64
2022/07/09 15:58:13;;;;;;;1.93;1.83;;;28.60;61.40;;;;;;4995338;28;20438;-64
2022/07/09 16:00:40;;;;;;;2.50;2.40;;;28.60;61.30;;;;;;4995158;28;20485;-64
2022/07/09 16:03:07;;;;;;;2.63;2.27;;;28.50;60.60;;;;;;4995245;28;20823;-64
2022/07/09 16:05:34;;;;;;;3.00;2.00;;;28.40;62.50;;;;;;4995428;28;20460;-64
2022/07/09 16:08:01;;;;;;;2.40;2.20;;;28.10;61.20;;;;;;4995345;28;20442;-68
2022/07/09 16:10:29;;;;;;;2.23;2.13;;;28.00;62.20;;;;;;4994999;28;20870;-68
2022/07/09 16:12:57;;;;;;;3.30;2.50;;;27.90;62.60;;;;;;4995045;28;20458;-67
2022/07/09 16:15:25;;;;;;;2.90;2.70;;;27.80;62.30;;;;;;4994699;28;20453;-67
2022/07/09 16:17:53;;;;;;;25.87;20.40;;;27.70;64.50;;;;;;4995347;28;20460;-67
2022/07/09 16:20:20;;;;;;;3.87;3.57;;;27.60;63.20;;;;;;4994908;28;20453;-68
2022/07/09 16:22:48;;;;;;;2.60;2.50;;;27.50;64.40;;;;;;4994864;28;20916;-67
2022/07/09 16:25:15;;;;;;;3.60;3.30;;;27.40;64.20;;;;;;4995152;28;20457;-68
2022/07/09 16:27:44;;;;;;;3.50;3.10;;;27.30;64.30;;;;;;4995064;28;20460;-68
2022/07/09 16:30:12;;;;;;;2.33;2.13;;;27.20;65.00;;;;;;4995150;28;20474;-68
2022/07/09 16:32:39;;;;;;;2.77;2.57;;;27.10;64.50;;;;;;4994863;28;20502;-67
2022/07/09 16:35:07;;;;;;;4.33;2.67;;;27.10;65.50;;;;;;4994956;28;20453;-68
2022/07/09 16:37:33;;;;;;;3.90;2.67;;;27.00;64.60;;;;;;4994987;28;20453;-67
2022/07/09 16:40:00;;;;;;;2.23;2.13;;;27.00;65.50;;;;;;4994787;28;20877;-67
2022/07/09 16:42:27;;;;;;;3.50;2.90;;;27.00;65.50;;;;;;4994821;28;20850;-67
2022/07/09 16:44:55;;;;;;;2.90;2.60;;;27.10;66.10;;;;;;4994576;28;20453;-67
2022/07/09 16:47:22;;;;;;;3.40;2.90;;;27.10;65.50;;;;;;4994591;28;20454;-67